Time;durP1;ratioP1;P1;durP2;ratioP2;P2;SDS_P1;SDS_P2;PMS_P1;PMS_P2;Temp;Humidity;BMP_temperature;BMP_pressure;BME280_temperature;BME280_humidity;BME280_pressure;Samples;Min_cycle;Max_cycle;Signal;HPM_P1;HPM_P2
2022/08/08 00:01:44;;;;;;;4.22;2.50;;;;;;;;;;5064224;28;20040;-73
2022/08/08 00:04:29;;;;;;;3.75;2.60;;;;;;;;;;5055731;28;20370;-73
2022/08/08 00:07:00;;;;;;;3.90;2.42;;;;;;;;;;5062088;28;20764;-73
2022/08/08 00:09:37;;;;;;;5.87;2.60;;;;;;;;;;5065335;28;20063;-73
2022/08/08 00:12:06;;;;;;;3.80;2.90;;;;;;;;;;5066507;28;20083;-73
2022/08/08 00:14:37;;;;;;;4.80;3.08;;;;;;;;;;5052877;28;20821;-73
2022/08/08 00:17:03;;;;;;;6.03;3.00;;;;;;;;;;5070732;28;20057;-73
2022/08/08 00:19:34;;;;;;;4.65;2.92;;;;;;;;;;5070070;28;20064;-73
2022/08/08 00:22:05;;;;;;;4.57;2.60;;;;;;;;;;5069996;28;20089;-73
2022/08/08 00:24:38;;;;;;;5.18;3.10;;;;;;;;;;5050799;28;20381;-73
2022/08/08 00:27:07;;;;;;;4.63;2.95;;;;;;;;;;5065239;28;20588;-73
2022/08/08 00:29:36;;;;;;;5.15;3.28;;;;;;;;;;5060137;28;20036;-73
2022/08/08 00:32:09;;;;;;;4.05;2.60;;;;;;;;;;5061477;28;20029;-73
2022/08/08 00:37:26;;;;;;;4.93;3.13;;;;;;;;;;5067676;28;20561;-73
2022/08/08 00:40:15;;;;;;;6.40;2.78;;;;;;;;;;5072698;28;20032;-73
2022/08/08 00:42:48;;;;;;;5.32;3.13;;;;;;;;;;5064182;28;20393;-73
2022/08/08 00:45:39;;;;;;;5.78;3.45;;;;;;;;;;5070504;28;20033;-73
2022/08/08 00:48:26;;;;;;;4.95;3.25;;;;;;;;;;5070209;28;20025;-73
2022/08/08 00:51:10;;;;;;;5.15;2.92;;;;;;;;;;5060164;28;20058;-73
2022/08/08 00:53:48;;;;;;;3.80;2.90;;;;;;;;;;5068685;28;20115;-73
2022/08/08 00:56:20;;;;;;;4.90;3.25;;;;;;;;;;5050222;28;20029;-73
2022/08/08 00:59:01;;;;;;;4.00;2.60;;;;;;;;;;5058998;28;20040;-72
2022/08/08 01:01:32;;;;;;;3.47;2.47;;;;;;;;;;5059260;28;20047;-72
2022/08/08 01:04:08;;;;;;;4.13;2.75;;;;;;;;;;5067770;28;20032;-73
2022/08/08 01:06:53;;;;;;;4.53;3.05;;;;;;;;;;5066387;28;20882;-73
2022/08/08 01:09:37;;;;;;;7.95;3.63;;;;;;;;;;5060944;28;20032;-73
2022/08/08 01:12:06;;;;;;;5.60;2.78;;;;;;;;;;5060357;28;20043;-73
2022/08/08 01:14:32;;;;;;;4.45;3.22;;;;;;;;;;5069132;28;20056;-73
2022/08/08 01:17:17;;;;;;;6.18;2.83;;;;;;;;;;5069808;28;20071;-73
2022/08/08 01:19:43;;;;;;;3.95;2.70;;;;;;;;;;5060881;28;20508;-73
2022/08/08 01:22:27;;;;;;;4.55;3.25;;;;;;;;;;5063451;28;20104;-73
2022/08/08 01:25:12;;;;;;;4.47;3.00;;;;;;;;;;5066917;28;20086;-73
2022/08/08 01:27:53;;;;;;;6.90;3.15;;;;;;;;;;5058519;28;20036;-73
2022/08/08 01:30:39;;;;;;;5.10;2.90;;;;;;;;;;5068244;28;20110;-72
2022/08/08 01:33:24;;;;;;;6.40;3.38;;;;;;;;;;5061483;28;20036;-72
2022/08/08 01:36:06;;;;;;;6.05;3.08;;;;;;;;;;5068595;28;20529;-72
2022/08/08 01:38:50;;;;;;;5.03;2.85;;;;;;;;;;5072945;28;20453;-73
2022/08/08 01:41:39;;;;;;;3.70;2.70;;;;;;;;;;5072741;28;20028;-73
2022/08/08 01:44:17;;;;;;;5.03;2.65;;;;;;;;;;5065815;28;20052;-73
2022/08/08 01:46:46;;;;;;;5.03;2.65;;;;;;;;;;5063501;28;20409;-73
2022/08/08 01:49:12;;;;;;;4.43;3.10;;;;;;;;;;5073090;28;20717;-73
2022/08/08 01:51:57;;;;;;;4.95;2.97;;;;;;;;;;5069891;28;20040;-73
2022/08/08 01:54:39;;;;;;;6.25;3.17;;;;;;;;;;5056973;28;20025;-73
2022/08/08 01:57:08;;;;;;;3.67;2.72;;;;;;;;;;5057717;28;20615;-73
2022/08/08 01:59:48;;;;;;;5.68;3.40;;;;;;;;;;5072203;28;20020;-73
2022/08/08 02:02:33;;;;;;;4.55;2.90;;;;;;;;;;5062967;28;20043;-73
2022/08/08 02:05:17;;;;;;;5.95;3.15;;;;;;;;;;5068367;28;20633;-73
2022/08/08 02:07:52;;;;;;;6.68;3.38;;;;;;;;;;5062664;28;20043;-73
2022/08/08 02:10:18;;;;;;;4.85;2.97;;;;;;;;;;5060761;28;20127;-73
2022/08/08 02:12:47;;;;;;;5.18;3.33;;;;;;;;;;5071390;28;20103;-73
2022/08/08 02:15:20;;;;;;;7.57;3.47;;;;;;;;;;5070569;28;20028;-73
2022/08/08 02:17:56;;;;;;;4.53;2.92;;;;;;;;;;5071730;28;20029;-73
2022/08/08 02:20:40;;;;;;;4.28;3.30;;;;;;;;;;5071468;28;20124;-73
2022/08/08 02:23:23;;;;;;;6.22;3.88;;;;;;;;;;5060984;28;20462;-73
2022/08/08 02:25:52;;;;;;;5.72;3.13;;;;;;;;;;5066556;28;20502;-73
2022/08/08 02:28:18;;;;;;;8.05;2.80;;;;;;;;;;5067028;28;20032;-73
2022/08/08 02:31:03;;;;;;;5.43;2.90;;;;;;;;;;5072063;28;20044;-73
2022/08/08 02:33:41;;;;;;;5.00;3.33;;;;;;;;;;5063050;28;20043;-72
2022/08/08 02:36:07;;;;;;;4.50;2.97;;;;;;;;;;5066126;28;20044;-72
2022/08/08 02:38:38;;;;;;;6.13;3.58;;;;;;;;;;5065605;28;20103;-73
2022/08/08 02:41:08;;;;;;;5.70;3.40;;;;;;;;;;5060738;28;20033;-73
2022/08/08 02:43:34;;;;;;;5.40;3.53;;;;;;;;;;5071664;28;20040;-73
2022/08/08 02:46:23;;;;;;;3.90;2.80;;;;;;;;;;5057443;28;20029;-73
2022/08/08 02:49:07;;;;;;;8.13;3.17;;;;;;;;;;5067959;28;20041;-73
2022/08/08 02:51:36;;;;;;;4.70;3.03;;;;;;;;;;5055461;28;20104;-73
2022/08/08 02:54:18;;;;;;;5.43;3.28;;;;;;;;;;5058904;28;20040;-73
2022/08/08 02:56:47;;;;;;;5.68;2.83;;;;;;;;;;5069605;28;20445;-73
2022/08/08 02:59:32;;;;;;;6.20;2.92;;;;;;;;;;5067826;28;20032;-73
2022/08/08 03:01:58;;;;;;;6.03;3.17;;;;;;;;;;5052121;28;20040;-73
2022/08/08 03:04:38;;;;;;;4.57;3.58;;;;;;;;;;5069142;28;20036;-73
2022/08/08 03:07:16;;;;;;;4.22;2.95;;;;;;;;;;5062398;28;20033;-73
2022/08/08 03:09:57;;;;;;;6.43;3.10;;;;;;;;;;5059530;28;20036;-73
2022/08/08 03:12:26;;;;;;;4.82;3.13;;;;;;;;;;5070503;28;20028;-72
2022/08/08 03:14:52;;;;;;;4.95;2.70;;;;;;;;;;5070686;28;20036;-72
2022/08/08 03:17:25;;;;;;;5.07;3.08;;;;;;;;;;5069782;28;20048;-72
2022/08/08 03:22:28;;;;;;;6.03;3.00;;;;;;;;;;5064448;28;20068;-72
2022/08/08 03:24:54;;;;;;;3.60;2.42;;;;;;;;;;5067421;28;20060;-72
2022/08/08 03:27:26;;;;;;;4.18;3.30;;;;;;;;;;5067397;28;20044;-72
2022/08/08 03:29:54;;;;;;;5.30;3.00;;;;;;;;;;5059113;28;20048;-72
2022/08/08 03:35:10;;;;;;;5.00;3.05;;;;;;;;;;5041260;28;20397;-72
2022/08/08 03:37:36;;;;;;;5.15;3.47;;;;;;;;;;5055696;28;20625;-72
2022/08/08 03:40:04;;;;;;;4.25;3.20;;;;;;;;;;5070721;28;20033;-72
2022/08/08 03:42:30;;;;;;;7.20;3.00;;;;;;;;;;5064945;28;20062;-72
2022/08/08 03:44:56;;;;;;;6.10;2.80;;;;;;;;;;5070234;28;20043;-72
2022/08/08 03:47:22;;;;;;;4.43;3.10;;;;;;;;;;5069072;28;20715;-72
2022/08/08 03:49:49;;;;;;;4.63;3.00;;;;;;;;;;5054660;28;20039;-73
2022/08/08 03:52:15;;;;;;;4.20;2.80;;;;;;;;;;5065434;28;20882;-74
2022/08/08 03:54:43;;;;;;;4.75;3.20;;;;;;;;;;5060627;28;20032;-74
2022/08/08 03:57:13;;;;;;;5.78;4.00;;;;;;;;;;5069423;28;20052;-74
2022/08/08 03:59:39;;;;;;;6.50;3.90;;;;;;;;;;5057532;28;20040;-74
2022/08/08 04:02:18;;;;;;;5.05;3.58;;;;;;;;;;5053503;28;20037;-74
2022/08/08 04:04:44;;;;;;;6.63;3.88;;;;;;;;;;5065994;28;20070;-74
2022/08/08 04:07:10;;;;;;;6.90;3.85;;;;;;;;;;5069745;28;20115;-74
2022/08/08 04:09:37;;;;;;;5.22;3.78;;;;;;;;;;5069384;28;20481;-74
2022/08/08 04:12:03;;;;;;;6.50;4.07;;;;;;;;;;5065814;28;20490;-74
2022/08/08 04:14:30;;;;;;;5.65;3.80;;;;;;;;;;5065850;28;20028;-74
2022/08/08 04:16:56;;;;;;;5.55;3.97;;;;;;;;;;5054754;28;20037;-74
2022/08/08 04:19:22;;;;;;;5.28;3.92;;;;;;;;;;5063033;28;20089;-74
2022/08/08 04:21:48;;;;;;;5.50;4.10;;;;;;;;;;5057655;28;20165;-74
2022/08/08 04:24:14;;;;;;;5.80;3.83;;;;;;;;;;5069088;28;20109;-74
2022/08/08 04:26:40;;;;;;;5.28;3.67;;;;;;;;;;5057402;28;20041;-74
2022/08/08 04:29:06;;;;;;;6.45;3.83;;;;;;;;;;5059520;28;20355;-74
2022/08/08 04:31:32;;;;;;;5.07;4.07;;;;;;;;;;5056649;28;20033;-74
2022/08/08 04:33:58;;;;;;;6.13;3.67;;;;;;;;;;5056291;28;20463;-74
2022/08/08 04:36:24;;;;;;;7.28;4.68;;;;;;;;;;5063331;28;20029;-74
2022/08/08 04:38:50;;;;;;;6.38;3.78;;;;;;;;;;5080513;22;20048;-74
2022/08/08 04:41:16;;;;;;;6.82;3.95;;;;;;;;;;5089395;28;20334;-74
2022/08/08 04:43:42;;;;;;;5.25;4.25;;;;;;;;;;5089645;28;20748;-74
2022/08/08 04:46:08;;;;;;;4.90;3.28;;;;;;;;;;5079911;28;20028;-74
2022/08/08 04:48:34;;;;;;;6.68;3.80;;;;;;;;;;5088775;28;20036;-74
2022/08/08 04:51:00;;;;;;;7.68;4.30;;;;;;;;;;5084023;28;20401;-75
2022/08/08 04:53:26;;;;;;;6.55;4.07;;;;;;;;;;5073995;28;20039;-75
2022/08/08 04:55:52;;;;;;;7.85;4.60;;;;;;;;;;5080119;28;20389;-75
2022/08/08 04:58:18;;;;;;;6.65;4.03;;;;;;;;;;5089285;28;20477;-75
2022/08/08 05:00:44;;;;;;;6.88;4.30;;;;;;;;;;5082248;28;20036;-75
2022/08/08 05:03:10;;;;;;;6.13;4.18;;;;;;;;;;5069786;28;20043;-75
2022/08/08 05:05:36;;;;;;;6.88;4.15;;;;;;;;;;5086673;28;20036;-75
2022/08/08 05:08:02;;;;;;;6.53;4.00;;;;;;;;;;5075173;28;20036;-75
2022/08/08 05:10:28;;;;;;;5.35;3.83;;;;;;;;;;5083382;28;20755;-75
2022/08/08 05:12:55;;;;;;;4.63;3.50;;;;;;;;;;5078568;28;20052;-74
2022/08/08 05:15:21;;;;;;;5.57;4.03;;;;;;;;;;5083826;28;20108;-74
2022/08/08 05:17:47;;;;;;;6.13;3.65;;;;;;;;;;5084903;28;20056;-74
2022/08/08 05:20:13;;;;;;;4.10;3.10;;;;;;;;;;5092409;28;20113;-74
2022/08/08 05:22:39;;;;;;;4.55;3.50;;;;;;;;;;5077140;28;20033;-74
2022/08/08 05:25:05;;;;;;;6.00;3.55;;;;;;;;;;5089374;28;20150;-73
2022/08/08 05:27:31;;;;;;;5.10;3.85;;;;;;;;;;5083129;28;20366;-72
2022/08/08 05:29:57;;;;;;;8.68;3.92;;;;;;;;;;5082995;28;20028;-72
2022/08/08 05:32:24;;;;;;;5.30;3.28;;;;;;;;;;5083510;28;20032;-73
2022/08/08 05:34:51;;;;;;;6.72;3.45;;;;;;;;;;5089794;28;20033;-74
2022/08/08 05:37:18;;;;;;;5.22;3.40;;;;;;;;;;5084204;28;20024;-73
2022/08/08 05:39:50;;;;;;;5.50;2.90;;;;;;;;;;5083206;28;20048;-73
2022/08/08 05:42:16;;;;;;;5.43;3.40;;;;;;;;;;5081367;28;20036;-73
2022/08/08 05:44:45;;;;;;;9.20;3.80;;;;;;;;;;5081284;28;20397;-73
2022/08/08 05:47:12;;;;;;;8.10;4.00;;;;;;;;;;5084732;28;20122;-73
2022/08/08 05:49:40;;;;;;;5.05;3.53;;;;;;;;;;5087491;28;20064;-72
2022/08/08 05:52:06;;;;;;;5.30;3.30;;;;;;;;;;5083317;28;20028;-72
2022/08/08 05:54:32;;;;;;;5.35;3.17;;;;;;;;;;5073126;28;20033;-72
2022/08/08 05:56:59;;;;;;;5.53;3.78;;;;;;;;;;5078755;28;20147;-73
2022/08/08 05:59:25;;;;;;;5.10;3.38;;;;;;;;;;5082800;28;20037;-73
2022/08/08 06:01:55;;;;;;;9.07;3.95;;;;;;;;;;5091917;28;20046;-73
2022/08/08 06:04:31;;;;;;;6.05;3.95;;;;;;;;;;5087585;28;20036;-73
2022/08/08 06:07:02;;;;;;;4.90;3.60;;;;;;;;;;5091521;28;20059;-73
2022/08/08 06:09:31;;;;;;;5.30;3.30;;;;;;;;;;5084922;28;20468;-73
2022/08/08 06:12:01;;;;;;;6.55;3.35;;;;;;;;;;5074316;28;20025;-73
2022/08/08 06:14:28;;;;;;;4.97;3.53;;;;;;;;;;5081120;28;20477;-73
2022/08/08 06:16:56;;;;;;;5.80;3.30;;;;;;;;;;5081839;28;20441;-73
2022/08/08 06:19:22;;;;;;;7.68;2.80;;;;;;;;;;5079216;28;20032;-74
2022/08/08 06:21:49;;;;;;;6.13;2.60;;;;;;;;;;5083287;28;20701;-74
2022/08/08 06:24:15;;;;;;;5.75;2.85;;;;;;;;;;5084427;28;20037;-75
2022/08/08 06:26:44;;;;;;;6.32;3.08;;;;;;;;;;5086112;28;20040;-75
2022/08/08 06:29:13;;;;;;;9.32;3.47;;;;;;;;;;5085656;28;20131;-75
2022/08/08 06:31:40;;;;;;;5.43;3.35;;;;;;;;;;5081841;28;20032;-73
2022/08/08 06:34:17;;;;;;;5.07;3.22;;;;;;;;;;5092333;28;20031;-73
2022/08/08 06:36:44;;;;;;;5.05;3.13;;;;;;;;;;5089382;28;20032;-73
2022/08/08 06:39:11;;;;;;;5.07;3.30;;;;;;;;;;5081549;28;20063;-73
2022/08/08 06:41:49;;;;;;;4.25;2.95;;;;;;;;;;5081665;28;20032;-73
2022/08/08 06:44:16;;;;;;;7.03;3.35;;;;;;;;;;5083909;28;20397;-73
2022/08/08 06:46:43;;;;;;;5.90;3.53;;;;;;;;;;5087710;28;20177;-73
2022/08/08 06:49:09;;;;;;;6.38;4.15;;;;;;;;;;5086517;28;20567;-73
2022/08/08 06:51:35;;;;;;;6.22;3.67;;;;;;;;;;5082780;28;20035;-72
2022/08/08 06:54:02;;;;;;;8.30;3.97;;;;;;;;;;5083164;28;20063;-72
2022/08/08 06:56:29;;;;;;;4.45;3.75;;;;;;;;;;5079418;28;20020;-72
2022/08/08 06:58:55;;;;;;;7.72;3.90;;;;;;;;;;5086284;28;20354;-72
2022/08/08 07:01:24;;;;;;;5.22;3.78;;;;;;;;;;5086685;28;20036;-73
2022/08/08 07:03:53;;;;;;;8.63;4.00;;;;;;;;;;5088738;28;20119;-73
2022/08/08 07:06:22;;;;;;;5.07;3.40;;;;;;;;;;5078624;28;20028;-73
2022/08/08 07:08:49;;;;;;;4.60;3.28;;;;;;;;;;5082014;28;20039;-73
2022/08/08 07:11:16;;;;;;;7.38;3.45;;;;;;;;;;5078084;28;20024;-73
2022/08/08 07:13:44;;;;;;;7.15;3.40;;;;;;;;;;5086329;28;20488;-73
2022/08/08 07:16:15;;;;;;;4.60;3.42;;;;;;;;;;5084517;28;20028;-73
2022/08/08 07:18:45;;;;;;;4.93;3.53;;;;;;;;;;5082781;28;20069;-73
2022/08/08 07:21:13;;;;;;;6.18;3.45;;;;;;;;;;5080873;28;20040;-73
2022/08/08 07:24:06;;;;;;;4.78;3.25;;;;;;;;;;5082353;28;20036;-73
2022/08/08 07:26:32;;;;;;;5.45;3.30;;;;;;;;;;5082055;28;20060;-74
2022/08/08 07:28:59;;;;;;;5.57;3.88;;;;;;;;;;5081502;28;20060;-73
2022/08/08 07:31:25;;;;;;;5.60;4.20;;;;;;;;;;5086552;28;20648;-73
2022/08/08 07:33:52;;;;;;;5.95;3.28;;;;;;;;;;5080853;28;20060;-73
2022/08/08 07:36:18;;;;;;;6.13;3.88;;;;;;;;;;5085906;28;20104;-73
2022/08/08 07:38:49;;;;;;;7.78;3.30;;;;;;;;;;5079822;28;20064;-73
2022/08/08 07:41:19;;;;;;;3.85;2.90;;;;;;;;;;5084575;28;20063;-73
2022/08/08 07:43:46;;;;;;;6.05;3.58;;;;;;;;;;5081818;28;20029;-73
2022/08/08 07:46:12;;;;;;;8.30;3.78;;;;;;;;;;5079774;28;20028;-73
2022/08/08 07:48:38;;;;;;;6.82;3.70;;;;;;;;;;5080718;28;20029;-73
2022/08/08 07:51:04;;;;;;;4.18;2.72;;;;;;;;;;5080134;28;20032;-73
2022/08/08 07:53:37;;;;;;;4.60;3.25;;;;;;;;;;5074595;28;20081;-73
2022/08/08 07:56:06;;;;;;;5.07;3.20;;;;;;;;;;5082685;28;20039;-73
2022/08/08 07:58:37;;;;;;;6.40;3.47;;;;;;;;;;5081296;28;20144;-73
2022/08/08 08:01:10;;;;;;;7.85;4.32;;;;;;;;;;5080215;28;20024;-73
2022/08/08 08:03:36;;;;;;;5.68;2.72;;;;;;;;;;5084295;28;20032;-73
2022/08/08 08:06:04;;;;;;;3.83;2.90;;;;;;;;;;5082414;28;20040;-73
2022/08/08 08:08:41;;;;;;;6.95;2.67;;;;;;;;;;5076319;28;20068;-74
2022/08/08 08:11:14;;;;;;;3.95;2.38;;;;;;;;;;5082480;28;20770;-75
2022/08/08 08:14:02;;;;;;;6.95;3.38;;;;;;;;;;5083001;28;20028;-73
2022/08/08 08:16:29;;;;;;;4.15;2.90;;;;;;;;;;5077899;28;20028;-73
2022/08/08 08:19:03;;;;;;;6.88;3.05;;;;;;;;;;5080105;28;20028;-73
2022/08/08 08:21:32;;;;;;;5.65;2.67;;;;;;;;;;5087420;28;20028;-73
2022/08/08 08:23:58;;;;;;;4.82;2.60;;;;;;;;;;5085921;28;20036;-73
2022/08/08 08:26:24;;;;;;;7.35;3.20;;;;;;;;;;5080512;28;20025;-73
2022/08/08 08:28:50;;;;;;;5.07;2.63;;;;;;;;;;5080547;28;20048;-73
2022/08/08 08:31:16;;;;;;;4.57;3.28;;;;;;;;;;5080320;28;20024;-73
2022/08/08 08:33:42;;;;;;;6.03;2.88;;;;;;;;;;5074729;28;20032;-73
2022/08/08 08:36:10;;;;;;;4.72;2.83;;;;;;;;;;5088281;28;20059;-73
2022/08/08 08:38:36;;;;;;;4.60;2.97;;;;;;;;;;5042524;28;1162529;-73
2022/08/08 08:41:05;;;;;;;4.20;2.80;;;;;;;;;;5085415;28;20028;-73
2022/08/08 08:43:32;;;;;;;4.63;2.90;;;;;;;;;;5088537;28;20028;-73
2022/08/08 08:45:59;;;;;;;6.15;3.45;;;;;;;;;;5084377;28;20032;-73
2022/08/08 08:48:25;;;;;;;5.70;3.20;;;;;;;;;;5081273;28;20527;-73
2022/08/08 08:50:52;;;;;;;4.18;3.35;;;;;;;;;;5086789;28;20028;-73
2022/08/08 08:53:19;;;;;;;5.07;3.58;;;;;;;;;;5083992;28;20872;-73
2022/08/08 08:55:45;;;;;;;3.35;2.40;;;;;;;;;;5084384;28;20028;-73
2022/08/08 08:58:42;;;;;;;4.93;3.47;;;;;;;;;;5088653;28;20763;-73
2022/08/08 09:01:09;;;;;;;4.15;2.80;;;;;;;;;;5072013;28;20089;-73
2022/08/08 09:03:35;;;;;;;4.43;2.67;;;;;;;;;;5091587;28;20030;-73
2022/08/08 09:06:01;;;;;;;6.60;3.13;;;;;;;;;;5092917;28;20032;-73
2022/08/08 09:08:28;;;;;;;4.88;3.08;;;;;;;;;;5085479;28;20031;-73
2022/08/08 09:10:54;;;;;;;7.03;2.92;;;;;;;;;;5090707;28;20485;-73
2022/08/08 09:13:21;;;;;;;6.75;3.13;;;;;;;;;;5079738;28;20028;-73
2022/08/08 09:15:47;;;;;;;3.88;2.70;;;;;;;;;;5083858;28;20089;-73
2022/08/08 09:18:16;;;;;;;6.03;3.20;;;;;;;;;;5100225;28;20034;-73
2022/08/08 09:20:43;;;;;;;4.35;2.78;;;;;;;;;;5088420;28;20097;-73
2022/08/08 09:23:10;;;;;;;5.30;2.70;;;;;;;;;;5089044;28;20495;-73
2022/08/08 09:25:37;;;;;;;4.13;2.58;;;;;;;;;;5089508;28;20417;-73
2022/08/08 09:28:03;;;;;;;8.45;3.15;;;;;;;;;;5082360;28;20030;-73
2022/08/08 09:30:31;;;;;;;11.52;3.08;;;;;;;;;;5081354;28;20029;-73
2022/08/08 09:32:58;;;;;;;6.18;3.30;;;;;;;;;;5077956;28;20035;-73
2022/08/08 09:35:29;;;;;;;6.18;2.80;;;;;;;;;;5082854;28;20024;-73
2022/08/08 09:37:56;;;;;;;5.80;3.13;;;;;;;;;;5086327;28;20028;-73
2022/08/08 09:40:23;;;;;;;4.40;2.90;;;;;;;;;;5086045;28;20086;-73
2022/08/08 09:42:50;;;;;;;5.13;2.55;;;;;;;;;;5077974;28;20032;-73
2022/08/08 09:45:22;;;;;;;9.45;3.78;;;;;;;;;;5088413;28;20110;-73
2022/08/08 09:47:49;;;;;;;7.15;3.22;;;;;;;;;;5085481;28;20082;-73
2022/08/08 09:50:16;;;;;;;3.35;2.30;;;;;;;;;;5086300;28;20057;-73
2022/08/08 09:52:47;;;;;;;6.13;2.85;;;;;;;;;;5089186;28;20035;-73
2022/08/08 09:55:13;;;;;;;4.40;3.00;;;;;;;;;;5086967;28;20070;-73
2022/08/08 09:57:40;;;;;;;5.53;2.60;;;;;;;;;;5078064;28;20043;-73
2022/08/08 10:00:07;;;;;;;8.65;3.42;;;;;;;;;;5086780;28;20850;-73
2022/08/08 10:02:35;;;;;;;4.18;2.80;;;;;;;;;;5077783;28;20037;-73
2022/08/08 10:05:15;;;;;;;5.28;2.40;;;;;;;;;;5090485;28;20082;-73
2022/08/08 10:07:50;;;;;;;6.40;2.85;;;;;;;;;;5088361;28;20484;-73
2022/08/08 10:10:34;;;;;;;6.78;3.00;;;;;;;;;;5087252;28;20032;-73
2022/08/08 10:13:01;;;;;;;5.35;3.28;;;;;;;;;;5076394;28;20039;-73
2022/08/08 10:15:35;;;;;;;4.05;2.90;;;;;;;;;;5084112;28;20029;-73
2022/08/08 10:18:01;;;;;;;3.83;2.63;;;;;;;;;;5083011;28;20032;-73
2022/08/08 10:20:28;;;;;;;6.32;3.15;;;;;;;;;;5087190;28;20138;-73
2022/08/08 10:22:58;;;;;;;3.67;2.90;;;;;;;;;;5083867;28;20023;-73
2022/08/08 10:25:24;;;;;;;5.03;3.15;;;;;;;;;;5086567;28;20146;-73
2022/08/08 10:27:52;;;;;;;4.93;2.85;;;;;;;;;;5082180;28;20076;-73
2022/08/08 10:30:18;;;;;;;7.20;2.92;;;;;;;;;;5083980;28;20154;-73
2022/08/08 10:32:50;;;;;;;3.65;2.65;;;;;;;;;;5088916;28;20036;-73
2022/08/08 10:35:17;;;;;;;5.60;2.85;;;;;;;;;;5090677;28;20509;-73
2022/08/08 10:37:51;;;;;;;6.72;2.63;;;;;;;;;;5085587;28;20039;-73
2022/08/08 10:40:17;;;;;;;5.53;2.65;;;;;;;;;;5083574;28;20540;-73
2022/08/08 10:42:45;;;;;;;5.97;2.72;;;;;;;;;;5078283;28;20494;-73
2022/08/08 10:45:11;;;;;;;5.20;3.00;;;;;;;;;;5078037;28;20485;-73
2022/08/08 10:47:38;;;;;;;3.63;2.70;;;;;;;;;;5089873;28;20109;-74
2022/08/08 10:50:05;;;;;;;4.75;2.55;;;;;;;;;;5078894;28;20036;-73
2022/08/08 10:52:41;;;;;;;6.18;3.10;;;;;;;;;;5085790;28;20077;-73
2022/08/08 10:55:09;;;;;;;4.78;2.58;;;;;;;;;;5094890;28;20051;-73
2022/08/08 10:57:44;;;;;;;6.57;3.10;;;;;;;;;;5082118;28;20108;-73
2022/08/08 11:00:12;;;;;;;4.57;2.85;;;;;;;;;;5083789;28;20158;-73
2022/08/08 11:02:38;;;;;;;3.15;2.35;;;;;;;;;;5079834;28;20075;-73
2022/08/08 11:05:07;;;;;;;4.63;2.70;;;;;;;;;;5088996;28;20032;-73
2022/08/08 11:07:47;;;;;;;4.25;2.80;;;;;;;;;;5077430;28;20154;-73
2022/08/08 11:10:16;;;;;;;5.82;2.45;;;;;;;;;;5081722;28;20024;-73
2022/08/08 11:13:00;;;;;;;4.10;2.42;;;;;;;;;;5081309;28;20032;-73
2022/08/08 11:15:27;;;;;;;3.92;2.40;;;;;;;;;;5083260;28;20389;-74
2022/08/08 11:17:54;;;;;;;4.47;2.88;;;;;;;;;;5080276;28;20364;-74
2022/08/08 11:20:24;;;;;;;3.92;2.20;;;;;;;;;;5084792;28;20035;-73
2022/08/08 11:22:54;;;;;;;4.45;2.40;;;;;;;;;;5080190;28;20046;-73
2022/08/08 11:25:24;;;;;;;6.25;2.42;;;;;;;;;;5081117;28;20047;-73
2022/08/08 11:27:53;;;;;;;5.75;2.20;;;;;;;;;;5078412;28;20470;-73
2022/08/08 11:30:21;;;;;;;5.80;2.40;;;;;;;;;;5087710;28;20522;-73
2022/08/08 11:32:48;;;;;;;4.45;2.60;;;;;;;;;;5088691;28;20380;-73
2022/08/08 11:35:14;;;;;;;4.05;2.33;;;;;;;;;;5088044;28;20024;-73
2022/08/08 11:37:41;;;;;;;4.90;2.53;;;;;;;;;;5083633;28;20037;-73
2022/08/08 11:40:09;;;;;;;5.10;2.33;;;;;;;;;;5086693;28;20051;-73
2022/08/08 11:42:35;;;;;;;4.20;2.33;;;;;;;;;;5076911;28;20040;-73
2022/08/08 11:45:01;;;;;;;7.55;2.17;;;;;;;;;;5086953;28;20040;-73
2022/08/08 11:47:28;;;;;;;5.00;2.20;;;;;;;;;;5085478;28;20118;-73
2022/08/08 11:49:55;;;;;;;3.63;2.10;;;;;;;;;;5079952;28;20028;-73
2022/08/08 11:52:22;;;;;;;4.57;2.30;;;;;;;;;;5082583;28;20036;-73
2022/08/08 11:54:48;;;;;;;4.82;2.00;;;;;;;;;;5078233;28;20426;-74
2022/08/08 11:57:17;;;;;;;5.95;2.55;;;;;;;;;;5084254;28;20134;-73
2022/08/08 11:59:45;;;;;;;3.50;1.83;;;;;;;;;;5084965;28;20047;-73
2022/08/08 12:02:11;;;;;;;7.13;2.05;;;;;;;;;;5079650;28;20051;-73
2022/08/08 12:04:37;;;;;;;5.10;2.40;;;;;;;;;;5077764;28;20166;-74
2022/08/08 12:07:04;;;;;;;4.72;2.05;;;;;;;;;;5087452;28;20059;-73
2022/08/08 12:09:30;;;;;;;5.90;2.08;;;;;;;;;;5078520;28;20060;-73
2022/08/08 12:11:56;;;;;;;3.38;1.80;;;;;;;;;;5081230;28;20393;-73
2022/08/08 12:14:23;;;;;;;3.83;1.80;;;;;;;;;;5083296;28;20074;-73
2022/08/08 12:16:52;;;;;;;4.30;1.83;;;;;;;;;;5085886;28;20036;-73
2022/08/08 12:19:19;;;;;;;4.50;2.13;;;;;;;;;;5077028;28;20346;-73
2022/08/08 12:21:45;;;;;;;5.72;1.73;;;;;;;;;;5088094;28;20377;-73
2022/08/08 12:24:12;;;;;;;4.03;1.80;;;;;;;;;;5076887;28;20036;-73
2022/08/08 12:26:44;;;;;;;4.75;2.00;;;;;;;;;;5097270;28;20032;-73
2022/08/08 12:29:19;;;;;;;5.97;1.98;;;;;;;;;;5083877;28;20031;-75
2022/08/08 12:31:45;;;;;;;3.60;2.03;;;;;;;;;;5090226;28;20485;-73
2022/08/08 12:34:11;;;;;;;4.57;1.80;;;;;;;;;;5088679;28;20038;-73
2022/08/08 12:36:41;;;;;;;5.53;1.90;;;;;;;;;;5076165;28;20172;-73
2022/08/08 12:39:08;;;;;;;8.10;1.83;;;;;;;;;;5081941;28;20076;-73
2022/08/08 12:41:35;;;;;;;7.97;1.58;;;;;;;;;;5093973;28;20032;-73
2022/08/08 12:44:08;;;;;;;2.55;1.55;;;;;;;;;;5089615;28;20023;-73
2022/08/08 12:46:34;;;;;;;8.75;2.40;;;;;;;;;;5083676;28;20530;-73
2022/08/08 12:49:01;;;;;;;4.80;1.65;;;;;;;;;;5091509;28;20055;-73
2022/08/08 12:51:27;;;;;;;6.28;1.67;;;;;;;;;;5084173;28;20028;-73
2022/08/08 12:54:00;;;;;;;3.67;1.60;;;;;;;;;;5077446;28;20024;-73
2022/08/08 12:56:39;;;;;;;6.88;2.10;;;;;;;;;;5086881;28;20036;-73
2022/08/08 12:59:15;;;;;;;6.35;1.52;;;;;;;;;;5079660;28;20465;-73
2022/08/08 13:01:41;;;;;;;4.00;1.67;;;;;;;;;;5072414;28;20487;-73
2022/08/08 13:04:17;;;;;;;2.15;1.30;;;;;;;;;;5089303;28;20028;-73
2022/08/08 13:06:53;;;;;;;8.60;1.70;;;;;;;;;;5084717;28;20113;-73
2022/08/08 13:09:28;;;;;;;3.70;1.80;;;;;;;;;;5076130;28;20032;-73
2022/08/08 13:11:54;;;;;;;2.95;1.50;;;;;;;;;;5079677;28;20382;-73
2022/08/08 13:14:20;;;;;;;5.38;1.50;;;;;;;;;;5074827;28;20033;-73
2022/08/08 13:16:48;;;;;;;5.07;1.27;;;;;;;;;;5082625;28;20044;-73
2022/08/08 13:19:14;;;;;;;3.00;1.40;;;;;;;;;;5080692;28;20024;-73
2022/08/08 13:21:44;;;;;;;2.13;1.60;;;;;;;;;;5089854;28;20059;-73
2022/08/08 13:24:10;;;;;;;2.55;1.40;;;;;;;;;;5084182;28;20346;-73
2022/08/08 13:26:36;;;;;;;3.97;1.77;;;;;;;;;;5079581;28;20036;-73
2022/08/08 13:29:09;;;;;;;5.63;1.55;;;;;;;;;;5082787;28;20024;-73
2022/08/08 13:31:35;;;;;;;2.42;1.30;;;;;;;;;;5086456;28;20028;-73
2022/08/08 13:34:02;;;;;;;3.10;1.40;;;;;;;;;;5085893;28;20055;-73
2022/08/08 13:36:28;;;;;;;4.00;1.33;;;;;;;;;;5082901;28;20024;-73
2022/08/08 13:38:55;;;;;;;2.65;1.50;;;;;;;;;;5090503;28;20040;-73
2022/08/08 13:41:21;;;;;;;2.95;1.30;;;;;;;;;;5085565;28;20074;-73
2022/08/08 13:43:47;;;;;;;2.50;1.42;;;;;;;;;;5092577;28;20067;-73
2022/08/08 13:46:14;;;;;;;3.88;1.50;;;;;;;;;;5090112;28;20032;-73
2022/08/08 13:48:44;;;;;;;3.17;1.50;;;;;;;;;;5083251;28;20407;-73
2022/08/08 13:51:10;;;;;;;3.53;1.48;;;;;;;;;;5085033;28;20036;-73
2022/08/08 13:53:39;;;;;;;2.30;1.15;;;;;;;;;;5088004;28;20028;-74
2022/08/08 13:56:07;;;;;;;3.92;1.67;;;;;;;;;;5089118;28;20056;-74
2022/08/08 13:58:34;;;;;;;3.00;1.42;;;;;;;;;;5083076;28;20028;-74
2022/08/08 14:01:16;;;;;;;4.88;1.40;;;;;;;;;;5091487;28;20534;-74
2022/08/08 14:03:56;;;;;;;5.00;1.27;;;;;;;;;;5084226;28;20048;-74
2022/08/08 14:06:22;;;;;;;3.05;1.50;;;;;;;;;;5080916;28;20548;-74
2022/08/08 14:08:49;;;;;;;4.90;1.40;;;;;;;;;;5078475;28;20162;-74
2022/08/08 14:11:22;;;;;;;2.15;1.10;;;;;;;;;;5086062;28;20054;-74
2022/08/08 14:13:48;;;;;;;5.50;1.25;;;;;;;;;;5079974;28;20021;-74
2022/08/08 14:16:15;;;;;;;3.55;1.55;;;;;;;;;;5087885;28;20039;-74
2022/08/08 14:19:00;;;;;;;3.83;1.20;;;;;;;;;;5088680;28;20110;-74
2022/08/08 14:21:40;;;;;;;2.80;1.33;;;;;;;;;;5087331;28;20036;-74
2022/08/08 14:24:06;;;;;;;4.25;1.38;;;;;;;;;;5086940;28;20054;-74
2022/08/08 14:26:32;;;;;;;2.35;1.20;;;;;;;;;;5086619;28;20576;-74
2022/08/08 14:28:59;;;;;;;5.35;1.20;;;;;;;;;;5080796;28;20040;-74
2022/08/08 14:31:25;;;;;;;2.35;1.27;;;;;;;;;;5081573;28;20033;-74
2022/08/08 14:33:56;;;;;;;2.70;1.17;;;;;;;;;;5084335;28;20044;-74
2022/08/08 14:36:34;;;;;;;3.55;1.48;;;;;;;;;;5075975;28;20473;-74
2022/08/08 14:39:01;;;;;;;2.75;1.27;;;;;;;;;;5081711;28;20074;-74
2022/08/08 14:41:27;;;;;;;3.70;1.52;;;;;;;;;;5081810;28;20040;-74
2022/08/08 14:43:54;;;;;;;4.50;1.70;;;;;;;;;;5077287;28;20055;-74
2022/08/08 14:46:25;;;;;;;4.65;1.45;;;;;;;;;;5084392;28;20037;-74
2022/08/08 14:48:51;;;;;;;2.90;1.35;;;;;;;;;;5086010;28;20032;-74
2022/08/08 14:51:20;;;;;;;4.50;1.20;;;;;;;;;;5090589;28;20131;-74
2022/08/08 14:53:46;;;;;;;4.15;1.30;;;;;;;;;;5077770;28;20050;-74
2022/08/08 14:56:12;;;;;;;6.10;1.35;;;;;;;;;;5082405;28;20036;-73
2022/08/08 14:58:38;;;;;;;3.97;1.10;;;;;;;;;;5078801;28;20032;-73
2022/08/08 15:01:04;;;;;;;4.63;1.30;;;;;;;;;;5075971;28;20060;-73
2022/08/08 15:03:30;;;;;;;2.47;1.20;;;;;;;;;;5084702;28;20038;-74
2022/08/08 15:05:56;;;;;;;3.38;1.30;;;;;;;;;;5082646;28;20036;-73
2022/08/08 15:08:23;;;;;;;4.05;1.20;;;;;;;;;;5091192;28;20039;-73